sensor_id;sensor_type;location;lat;lon;timestamp;pressure;altitude;pressure_sealevel;temperature;humidity
8653;BME280;4364;52.426;9.424;2022-09-09T00:01:33;100416.47;;;14.07;97.55
8653;BME280;4364;52.426;9.424;2022-09-09T00:04:12;100410.28;;;14.01;97.29
8653;BME280;4364;52.426;9.424;2022-09-09T00:09:19;100420.63;;;14.04;97.33
8653;BME280;4364;52.426;9.424;2022-09-09T00:11:51;100418.50;;;14.01;97.15
8653;BME280;4364;52.426;9.424;2022-09-09T00:17:09;100421.44;;;13.91;96.89
8653;BME280;4364;52.426;9.424;2022-09-09T00:19:45;100417.13;;;13.90;96.61
8653;BME280;4364;52.426;9.424;2022-09-09T00:22:22;100420.47;;;13.87;96.72
8653;BME280;4364;52.426;9.424;2022-09-09T00:24:52;100413.56;;;13.89;97.17
8653;BME280;4364;52.426;9.424;2022-09-09T00:27:34;100417.84;;;13.82;96.69
8653;BME280;4364;52.426;9.424;2022-09-09T00:30:25;100420.03;;;13.80;96.86
8653;BME280;4364;52.426;9.424;2022-09-09T00:32:58;100418.25;;;13.75;96.91
8653;BME280;4364;52.426;9.424;2022-09-09T00:35:33;100415.09;;;13.68;96.70
8653;BME280;4364;52.426;9.424;2022-09-09T00:38:09;100413.69;;;13.70;96.41
8653;BME280;4364;52.426;9.424;2022-09-09T00:40:42;100411.75;;;13.71;96.69
8653;BME280;4364;52.426;9.424;2022-09-09T00:43:23;100408.03;;;13.67;96.29
8653;BME280;4364;52.426;9.424;2022-09-09T00:54:09;100416.44;;;13.57;96.41
8653;BME280;4364;52.426;9.424;2022-09-09T00:56:49;100409.66;;;13.54;96.04
8653;BME280;4364;52.426;9.424;2022-09-09T01:01:54;100409.75;;;13.49;96.14
8653;BME280;4364;52.426;9.424;2022-09-09T01:04:29;100410.84;;;13.48;95.85
8653;BME280;4364;52.426;9.424;2022-09-09T01:07:12;100411.69;;;13.48;96.18
8653;BME280;4364;52.426;9.424;2022-09-09T01:09:45;100412.69;;;13.52;96.30
8653;BME280;4364;52.426;9.424;2022-09-09T01:15:03;100406.59;;;13.56;96.12
8653;BME280;4364;52.426;9.424;2022-09-09T01:20:29;100404.69;;;13.56;96.34
8653;BME280;4364;52.426;9.424;2022-09-09T01:23:19;100399.81;;;13.53;96.21
8653;BME280;4364;52.426;9.424;2022-09-09T01:28:49;100396.91;;;13.63;96.38
8653;BME280;4364;52.426;9.424;2022-09-09T01:31:26;100390.91;;;13.61;96.15
8653;BME280;4364;52.426;9.424;2022-09-09T01:33:54;100392.75;;;13.66;96.43
8653;BME280;4364;52.426;9.424;2022-09-09T01:36:31;100392.44;;;13.67;96.00
8653;BME280;4364;52.426;9.424;2022-09-09T01:39:02;100400.31;;;13.69;96.03
8653;BME280;4364;52.426;9.424;2022-09-09T01:41:29;100395.16;;;13.67;96.13
8653;BME280;4364;52.426;9.424;2022-09-09T01:44:03;100393.75;;;13.70;96.11
8653;BME280;4364;52.426;9.424;2022-09-09T01:46:33;100392.31;;;13.73;95.55
8653;BME280;4364;52.426;9.424;2022-09-09T01:49:02;100391.81;;;13.70;95.72
8653;BME280;4364;52.426;9.424;2022-09-09T01:51:31;100388.00;;;13.71;95.72
8653;BME280;4364;52.426;9.424;2022-09-09T01:54:02;100387.34;;;13.75;95.64
8653;BME280;4364;52.426;9.424;2022-09-09T01:59:35;100396.19;;;13.71;96.07
8653;BME280;4364;52.426;9.424;2022-09-09T02:04:49;100396.78;;;13.68;95.81
8653;BME280;4364;52.426;9.424;2022-09-09T02:07:42;100395.97;;;13.54;95.86
8653;BME280;4364;52.426;9.424;2022-09-09T02:11:11;100397.19;;;13.48;96.19
8653;BME280;4364;52.426;9.424;2022-09-09T02:13:32;100395.78;;;13.50;96.56
8653;BME280;4364;52.426;9.424;2022-09-09T02:19:25;100394.59;;;13.57;96.40
8653;BME280;4364;52.426;9.424;2022-09-09T02:22:06;100398.31;;;13.61;95.75
8653;BME280;4364;52.426;9.424;2022-09-09T02:24:36;100398.59;;;13.59;95.79
8653;BME280;4364;52.426;9.424;2022-09-09T02:27:20;100400.84;;;13.57;95.78
8653;BME280;4364;52.426;9.424;2022-09-09T02:29:49;100403.56;;;13.57;95.80
8653;BME280;4364;52.426;9.424;2022-09-09T02:32:23;100397.81;;;13.59;95.90
8653;BME280;4364;52.426;9.424;2022-09-09T02:34:55;100400.25;;;13.60;95.85
8653;BME280;4364;52.426;9.424;2022-09-09T02:37:31;100396.59;;;13.65;95.95
8653;BME280;4364;52.426;9.424;2022-09-09T02:39:58;100393.88;;;13.65;95.52
8653;BME280;4364;52.426;9.424;2022-09-09T02:42:31;100391.34;;;13.68;95.33
8653;BME280;4364;52.426;9.424;2022-09-09T02:44:59;100402.88;;;13.65;95.65
8653;BME280;4364;52.426;9.424;2022-09-09T02:47:35;100392.84;;;13.61;95.23
8653;BME280;4364;52.426;9.424;2022-09-09T02:55:23;100403.78;;;13.61;95.20
8653;BME280;4364;52.426;9.424;2022-09-09T02:57:55;100398.31;;;13.61;95.50
8653;BME280;4364;52.426;9.424;2022-09-09T03:00:26;100399.75;;;13.58;95.54
8653;BME280;4364;52.426;9.424;2022-09-09T03:02:59;100401.03;;;13.61;95.74
8653;BME280;4364;52.426;9.424;2022-09-09T03:05:26;100399.09;;;13.61;95.83
8653;BME280;4364;52.426;9.424;2022-09-09T03:07:54;100404.06;;;13.59;95.65
8653;BME280;4364;52.426;9.424;2022-09-09T03:10:21;100398.72;;;13.54;95.40
8653;BME280;4364;52.426;9.424;2022-09-09T03:12:48;100415.59;;;13.56;95.99
8653;BME280;4364;52.426;9.424;2022-09-09T03:15:16;100413.28;;;13.63;95.31
8653;BME280;4364;52.426;9.424;2022-09-09T03:17:43;100416.81;;;13.64;95.67
8653;BME280;4364;52.426;9.424;2022-09-09T03:20:10;100413.91;;;13.60;95.29
8653;BME280;4364;52.426;9.424;2022-09-09T03:22:37;100403.28;;;13.59;95.62
8653;BME280;4364;52.426;9.424;2022-09-09T03:25:04;100412.88;;;13.56;95.58
8653;BME280;4364;52.426;9.424;2022-09-09T03:27:33;100418.53;;;13.60;95.53
8653;BME280;4364;52.426;9.424;2022-09-09T03:30:02;100418.75;;;13.63;95.72
8653;BME280;4364;52.426;9.424;2022-09-09T03:32:29;100413.19;;;13.68;95.23
8653;BME280;4364;52.426;9.424;2022-09-09T03:34:57;100416.91;;;13.73;95.51
8653;BME280;4364;52.426;9.424;2022-09-09T03:37:25;100417.03;;;13.67;95.29
8653;BME280;4364;52.426;9.424;2022-09-09T03:39:52;100417.03;;;13.67;95.27
8653;BME280;4364;52.426;9.424;2022-09-09T03:42:21;100416.81;;;13.64;95.33
8653;BME280;4364;52.426;9.424;2022-09-09T03:44:51;100417.63;;;13.64;95.80
8653;BME280;4364;52.426;9.424;2022-09-09T03:47:21;100414.19;;;13.59;95.41
8653;BME280;4364;52.426;9.424;2022-09-09T03:49:51;100412.56;;;13.58;95.84
8653;BME280;4364;52.426;9.424;2022-09-09T03:52:17;100403.88;;;13.56;95.94
8653;BME280;4364;52.426;9.424;2022-09-09T03:54:50;100410.97;;;13.57;96.24
8653;BME280;4364;52.426;9.424;2022-09-09T03:57:17;100401.03;;;13.61;96.41
8653;BME280;4364;52.426;9.424;2022-09-09T03:59:44;100401.97;;;13.70;96.28
8653;BME280;4364;52.426;9.424;2022-09-09T04:02:10;100401.84;;;13.75;96.21
8653;BME280;4364;52.426;9.424;2022-09-09T04:04:37;100400.53;;;13.73;96.26
8653;BME280;4364;52.426;9.424;2022-09-09T04:07:03;100407.31;;;13.75;96.60
8653;BME280;4364;52.426;9.424;2022-09-09T04:09:33;100397.59;;;13.69;96.20
8653;BME280;4364;52.426;9.424;2022-09-09T04:12:01;100401.31;;;13.73;96.57
8653;BME280;4364;52.426;9.424;2022-09-09T04:14:29;100402.47;;;13.72;96.63
8653;BME280;4364;52.426;9.424;2022-09-09T04:17:01;100402.53;;;13.81;96.21
8653;BME280;4364;52.426;9.424;2022-09-09T04:19:33;100404.78;;;13.79;96.71
8653;BME280;4364;52.426;9.424;2022-09-09T04:22:00;100399.81;;;13.81;96.57
8653;BME280;4364;52.426;9.424;2022-09-09T04:24:27;100397.56;;;13.83;96.49
8653;BME280;4364;52.426;9.424;2022-09-09T04:26:57;100401.94;;;13.84;96.79
8653;BME280;4364;52.426;9.424;2022-09-09T04:29:24;100410.94;;;13.84;96.78
8653;BME280;4364;52.426;9.424;2022-09-09T04:31:51;100411.66;;;13.90;97.10
8653;BME280;4364;52.426;9.424;2022-09-09T04:34:18;100415.19;;;13.90;96.47
8653;BME280;4364;52.426;9.424;2022-09-09T04:36:44;100412.94;;;13.93;96.71
8653;BME280;4364;52.426;9.424;2022-09-09T04:39:12;100409.09;;;13.94;96.73
8653;BME280;4364;52.426;9.424;2022-09-09T04:41:38;100413.97;;;13.97;96.71
8653;BME280;4364;52.426;9.424;2022-09-09T04:44:05;100414.78;;;13.97;96.77
8653;BME280;4364;52.426;9.424;2022-09-09T04:46:32;100419.44;;;13.97;96.91
8653;BME280;4364;52.426;9.424;2022-09-09T04:49:00;100420.22;;;13.97;97.15
8653;BME280;4364;52.426;9.424;2022-09-09T04:51:31;100425.91;;;14.01;97.01
8653;BME280;4364;52.426;9.424;2022-09-09T04:53:58;100428.22;;;14.07;96.99
8653;BME280;4364;52.426;9.424;2022-09-09T04:56:25;100424.06;;;14.10;97.04
8653;BME280;4364;52.426;9.424;2022-09-09T04:58:59;100424.88;;;14.11;96.94
8653;BME280;4364;52.426;9.424;2022-09-09T05:01:38;100423.75;;;14.12;97.16
8653;BME280;4364;52.426;9.424;2022-09-09T05:04:05;100422.31;;;14.14;96.92
8653;BME280;4364;52.426;9.424;2022-09-09T05:06:33;100433.56;;;14.13;97.10
8653;BME280;4364;52.426;9.424;2022-09-09T05:09:00;100429.00;;;14.08;97.07
8653;BME280;4364;52.426;9.424;2022-09-09T05:11:31;100427.09;;;14.08;97.05
8653;BME280;4364;52.426;9.424;2022-09-09T05:14:18;100421.75;;;14.03;97.73
8653;BME280;4364;52.426;9.424;2022-09-09T05:16:45;100428.81;;;14.04;97.45
8653;BME280;4364;52.426;9.424;2022-09-09T05:19:13;100432.88;;;14.07;96.85
8653;BME280;4364;52.426;9.424;2022-09-09T05:21:43;100430.44;;;14.05;96.98
8653;BME280;4364;52.426;9.424;2022-09-09T05:24:11;100428.31;;;14.02;97.12
8653;BME280;4364;52.426;9.424;2022-09-09T05:26:38;100440.16;;;14.12;96.97
8653;BME280;4364;52.426;9.424;2022-09-09T05:29:06;100441.06;;;14.07;97.21
8653;BME280;4364;52.426;9.424;2022-09-09T05:31:33;100434.16;;;14.09;97.45
8653;BME280;4364;52.426;9.424;2022-09-09T05:34:29;100434.38;;;14.13;97.07
8653;BME280;4364;52.426;9.424;2022-09-09T05:36:55;100438.41;;;14.16;97.59
8653;BME280;4364;52.426;9.424;2022-09-09T05:39:23;100439.41;;;14.20;97.94
8653;BME280;4364;52.426;9.424;2022-09-09T05:41:50;100442.75;;;14.31;97.60
8653;BME280;4364;52.426;9.424;2022-09-09T05:44:17;100450.53;;;14.37;97.36
8653;BME280;4364;52.426;9.424;2022-09-09T05:46:43;100448.59;;;14.38;97.37
8653;BME280;4364;52.426;9.424;2022-09-09T05:49:12;100446.03;;;14.41;97.43
8653;BME280;4364;52.426;9.424;2022-09-09T05:51:40;100460.25;;;14.43;97.21
8653;BME280;4364;52.426;9.424;2022-09-09T05:54:09;100457.69;;;14.47;97.21
8653;BME280;4364;52.426;9.424;2022-09-09T05:56:41;100459.81;;;14.50;97.16
8653;BME280;4364;52.426;9.424;2022-09-09T05:59:08;100451.31;;;14.52;96.79
8653;BME280;4364;52.426;9.424;2022-09-09T06:01:36;100456.78;;;14.52;96.86
8653;BME280;4364;52.426;9.424;2022-09-09T06:04:09;100446.31;;;14.54;96.28
8653;BME280;4364;52.426;9.424;2022-09-09T06:06:39;100460.50;;;14.56;96.58
8653;BME280;4364;52.426;9.424;2022-09-09T06:09:15;100451.88;;;14.62;96.54
8653;BME280;4364;52.426;9.424;2022-09-09T06:11:42;100456.94;;;14.69;96.11
8653;BME280;4364;52.426;9.424;2022-09-09T06:14:10;100458.31;;;14.80;95.79
8653;BME280;4364;52.426;9.424;2022-09-09T06:16:38;100454.31;;;14.87;95.19
8653;BME280;4364;52.426;9.424;2022-09-09T06:19:11;100459.03;;;14.95;93.91
8653;BME280;4364;52.426;9.424;2022-09-09T06:21:39;100459.78;;;15.09;93.32
8653;BME280;4364;52.426;9.424;2022-09-09T06:24:07;100467.41;;;15.21;93.03
8653;BME280;4364;52.426;9.424;2022-09-09T06:26:36;100445.22;;;15.31;92.24
8653;BME280;4364;52.426;9.424;2022-09-09T06:29:04;100449.75;;;15.36;91.03
8653;BME280;4364;52.426;9.424;2022-09-09T06:31:33;100453.16;;;15.42;91.55
8653;BME280;4364;52.426;9.424;2022-09-09T06:34:08;100451.84;;;15.30;90.88
8653;BME280;4364;52.426;9.424;2022-09-09T06:36:38;100451.00;;;15.30;91.53
8653;BME280;4364;52.426;9.424;2022-09-09T06:39:06;100454.59;;;15.30;91.69
8653;BME280;4364;52.426;9.424;2022-09-09T06:41:39;100451.63;;;15.27;91.36
8653;BME280;4364;52.426;9.424;2022-09-09T06:44:13;100459.38;;;15.25;91.69
8653;BME280;4364;52.426;9.424;2022-09-09T06:46:41;100447.31;;;15.26;91.66
8653;BME280;4364;52.426;9.424;2022-09-09T06:49:09;100456.16;;;15.23;92.04
8653;BME280;4364;52.426;9.424;2022-09-09T06:51:37;100456.94;;;15.23;92.22
8653;BME280;4364;52.426;9.424;2022-09-09T06:54:11;100449.72;;;15.27;91.93
8653;BME280;4364;52.426;9.424;2022-09-09T06:56:42;100445.22;;;15.31;92.45
8653;BME280;4364;52.426;9.424;2022-09-09T06:59:16;100447.03;;;15.36;91.69
8653;BME280;4364;52.426;9.424;2022-09-09T07:01:43;100454.16;;;15.46;92.25
8653;BME280;4364;52.426;9.424;2022-09-09T07:04:12;100456.13;;;15.54;92.30
8653;BME280;4364;52.426;9.424;2022-09-09T07:06:44;100459.69;;;15.63;92.30
8653;BME280;4364;52.426;9.424;2022-09-09T07:09:22;100459.41;;;15.73;91.93
8653;BME280;4364;52.426;9.424;2022-09-09T07:11:51;100460.47;;;15.86;92.26
8653;BME280;4364;52.426;9.424;2022-09-09T07:14:20;100454.97;;;15.86;91.02
8653;BME280;4364;52.426;9.424;2022-09-09T07:16:53;100451.28;;;15.91;91.15
8653;BME280;4364;52.426;9.424;2022-09-09T07:19:25;100451.75;;;15.84;91.93
8653;BME280;4364;52.426;9.424;2022-09-09T07:21:53;100454.97;;;15.86;92.24
8653;BME280;4364;52.426;9.424;2022-09-09T07:24:22;100460.00;;;15.93;91.03
8653;BME280;4364;52.426;9.424;2022-09-09T07:26:50;100451.94;;;15.97;91.04
8653;BME280;4364;52.426;9.424;2022-09-09T07:29:18;100463.38;;;15.99;91.27
8653;BME280;4364;52.426;9.424;2022-09-09T07:31:47;100460.47;;;15.95;91.04
8653;BME280;4364;52.426;9.424;2022-09-09T07:34:19;100453.41;;;15.94;91.03
8653;BME280;4364;52.426;9.424;2022-09-09T07:36:45;100461.31;;;16.04;90.82
8653;BME280;4364;52.426;9.424;2022-09-09T07:39:13;100457.25;;;16.02;90.61
8653;BME280;4364;52.426;9.424;2022-09-09T07:41:46;100464.53;;;16.06;91.59
8653;BME280;4364;52.426;9.424;2022-09-09T07:44:19;100463.28;;;16.13;90.55
8653;BME280;4364;52.426;9.424;2022-09-09T07:46:52;100464.06;;;16.22;90.35
8653;BME280;4364;52.426;9.424;2022-09-09T07:49:25;100460.69;;;16.34;89.51
8653;BME280;4364;52.426;9.424;2022-09-09T07:51:59;100459.25;;;16.45;89.04
8653;BME280;4364;52.426;9.424;2022-09-09T07:54:27;100460.88;;;16.37;87.74
8653;BME280;4364;52.426;9.424;2022-09-09T07:56:54;100465.38;;;16.42;88.28
8653;BME280;4364;52.426;9.424;2022-09-09T07:59:23;100465.41;;;16.51;88.22
8653;BME280;4364;52.426;9.424;2022-09-09T08:01:52;100463.78;;;16.58;87.74
8653;BME280;4364;52.426;9.424;2022-09-09T08:04:24;100474.28;;;16.82;87.21
8653;BME280;4364;52.426;9.424;2022-09-09T08:06:54;100476.06;;;16.87;86.96
8653;BME280;4364;52.426;9.424;2022-09-09T08:09:24;100472.34;;;16.92;86.57
8653;BME280;4364;52.426;9.424;2022-09-09T08:12:14;100467.94;;;17.17;84.78
8653;BME280;4364;52.426;9.424;2022-09-09T08:14:40;100473.91;;;17.28;84.74
8653;BME280;4364;52.426;9.424;2022-09-09T08:17:07;100480.84;;;17.25;82.77
8653;BME280;4364;52.426;9.424;2022-09-09T08:19:33;100479.03;;;17.38;83.54
8653;BME280;4364;52.426;9.424;2022-09-09T08:22:05;100469.41;;;17.62;83.52
8653;BME280;4364;52.426;9.424;2022-09-09T08:24:33;100483.78;;;17.67;82.63
8653;BME280;4364;52.426;9.424;2022-09-09T08:27:00;100479.72;;;17.73;80.97
8653;BME280;4364;52.426;9.424;2022-09-09T08:29:28;100476.13;;;17.82;80.97
8653;BME280;4364;52.426;9.424;2022-09-09T08:31:57;100480.00;;;17.81;79.18
8653;BME280;4364;52.426;9.424;2022-09-09T08:34:26;100480.50;;;17.74;79.35
8653;BME280;4364;52.426;9.424;2022-09-09T08:36:55;100477.75;;;17.74;79.15
8653;BME280;4364;52.426;9.424;2022-09-09T08:39:29;100482.13;;;17.75;79.10
8653;BME280;4364;52.426;9.424;2022-09-09T08:50:02;100499.19;;;17.98;78.85
8653;BME280;4364;52.426;9.424;2022-09-09T08:57:54;100509.91;;;18.21;76.27
8653;BME280;4364;52.426;9.424;2022-09-09T09:00:31;100503.94;;;18.19;76.74
8653;BME280;4364;52.426;9.424;2022-09-09T09:03:06;100509.94;;;18.42;77.08
8653;BME280;4364;52.426;9.424;2022-09-09T09:06:31;100504.75;;;18.40;75.70
8653;BME280;4364;52.426;9.424;2022-09-09T09:08:51;100509.22;;;18.54;75.15
8653;BME280;4364;52.426;9.424;2022-09-09T09:11:23;100514.31;;;18.43;74.08
8653;BME280;4364;52.426;9.424;2022-09-09T09:14:03;100507.25;;;18.54;74.36
8653;BME280;4364;52.426;9.424;2022-09-09T09:16:57;100511.69;;;18.67;75.20
8653;BME280;4364;52.426;9.424;2022-09-09T09:19:52;100510.75;;;18.63;75.29
8653;BME280;4364;52.426;9.424;2022-09-09T09:22:43;100510.56;;;18.68;75.40
8653;BME280;4364;52.426;9.424;2022-09-09T09:25:20;100512.97;;;18.70;74.70
8653;BME280;4364;52.426;9.424;2022-09-09T09:28:24;100514.94;;;18.91;73.96
8653;BME280;4364;52.426;9.424;2022-09-09T09:30:59;100514.50;;;18.80;73.69
8653;BME280;4364;52.426;9.424;2022-09-09T09:36:08;100508.75;;;18.94;72.09
8653;BME280;4364;52.426;9.424;2022-09-09T09:38:37;100504.97;;;18.98;72.40
8653;BME280;4364;52.426;9.424;2022-09-09T09:41:38;100509.16;;;19.04;71.64
8653;BME280;4364;52.426;9.424;2022-09-09T09:44:27;100504.53;;;18.96;70.27
8653;BME280;4364;52.426;9.424;2022-09-09T09:47:12;100500.66;;;19.10;70.43
8653;BME280;4364;52.426;9.424;2022-09-09T09:49:56;100497.69;;;19.15;70.31
8653;BME280;4364;52.426;9.424;2022-09-09T09:52:29;100499.56;;;19.23;69.88
8653;BME280;4364;52.426;9.424;2022-09-09T09:55:02;100499.38;;;19.07;69.64
8653;BME280;4364;52.426;9.424;2022-09-09T09:57:34;100498.50;;;19.15;71.17
8653;BME280;4364;52.426;9.424;2022-09-09T10:00:14;100493.34;;;19.26;70.04
8653;BME280;4364;52.426;9.424;2022-09-09T10:02:46;100503.41;;;19.10;70.23
8653;BME280;4364;52.426;9.424;2022-09-09T10:05:28;100495.63;;;19.12;69.39
8653;BME280;4364;52.426;9.424;2022-09-09T10:08:12;100493.56;;;19.21;68.73
8653;BME280;4364;52.426;9.424;2022-09-09T10:13:50;100478.06;;;19.16;68.16
8653;BME280;4364;52.426;9.424;2022-09-09T10:19:06;100478.31;;;19.23;67.94
8653;BME280;4364;52.426;9.424;2022-09-09T10:22:05;100472.97;;;19.52;68.31
8653;BME280;4364;52.426;9.424;2022-09-09T10:27:46;100479.66;;;19.88;67.30
8653;BME280;4364;52.426;9.424;2022-09-09T10:30:58;100477.00;;;19.79;66.48
8653;BME280;4364;52.426;9.424;2022-09-09T10:33:44;100477.78;;;19.67;66.71
8653;BME280;4364;52.426;9.424;2022-09-09T10:36:23;100484.81;;;19.65;67.58
8653;BME280;4364;52.426;9.424;2022-09-09T10:39:03;100475.59;;;19.48;67.16
8653;BME280;4364;52.426;9.424;2022-09-09T10:41:35;100473.41;;;19.41;67.41
8653;BME280;4364;52.426;9.424;2022-09-09T10:46:49;100470.16;;;19.39;67.85
8653;BME280;4364;52.426;9.424;2022-09-09T10:52:22;100464.81;;;19.92;65.86
8653;BME280;4364;52.426;9.424;2022-09-09T10:55:10;100475.72;;;20.26;63.97
8653;BME280;4364;52.426;9.424;2022-09-09T10:57:49;100481.28;;;20.54;61.97
8653;BME280;4364;52.426;9.424;2022-09-09T11:00:23;100487.34;;;20.72;60.68
8653;BME280;4364;52.426;9.424;2022-09-09T11:03:01;100481.59;;;20.77;58.87
8653;BME280;4364;52.426;9.424;2022-09-09T11:08:17;100466.84;;;20.73;60.93
8653;BME280;4364;52.426;9.424;2022-09-09T11:11:03;100453.13;;;21.05;60.08
8653;BME280;4364;52.426;9.424;2022-09-09T11:19:30;100452.91;;;21.42;58.10
8653;BME280;4364;52.426;9.424;2022-09-09T11:25:10;100454.41;;;21.39;56.91
8653;BME280;4364;52.426;9.424;2022-09-09T11:30:59;100452.22;;;21.01;57.89
8653;BME280;4364;52.426;9.424;2022-09-09T11:36:11;100458.28;;;20.50;58.95
8653;BME280;4364;52.426;9.424;2022-09-09T11:38:51;100474.53;;;20.39;59.80
8653;BME280;4364;52.426;9.424;2022-09-09T11:41:20;100464.22;;;20.24;60.90
8653;BME280;4364;52.426;9.424;2022-09-09T11:43:49;100468.03;;;19.94;62.38
8653;BME280;4364;52.426;9.424;2022-09-09T11:46:21;100480.00;;;19.86;63.14
8653;BME280;4364;52.426;9.424;2022-09-09T11:49:01;100489.03;;;19.74;64.42
8653;BME280;4364;52.426;9.424;2022-09-09T11:51:31;100503.81;;;19.33;66.43
8653;BME280;4364;52.426;9.424;2022-09-09T11:54:00;100506.88;;;18.85;68.53
8653;BME280;4364;52.426;9.424;2022-09-09T11:56:33;100508.53;;;18.57;69.98
8653;BME280;4364;52.426;9.424;2022-09-09T11:59:17;100500.22;;;18.65;70.55
8653;BME280;4364;52.426;9.424;2022-09-09T12:01:50;100501.38;;;18.64;70.91
8653;BME280;4364;52.426;9.424;2022-09-09T12:04:21;100495.22;;;18.59;70.53
8653;BME280;4364;52.426;9.424;2022-09-09T12:10:00;100497.72;;;18.73;71.30
8653;BME280;4364;52.426;9.424;2022-09-09T12:12:35;100498.63;;;18.64;70.54
8653;BME280;4364;52.426;9.424;2022-09-09T12:17:45;100503.28;;;19.06;67.89
8653;BME280;4364;52.426;9.424;2022-09-09T12:20:22;100505.19;;;19.27;68.86
8653;BME280;4364;52.426;9.424;2022-09-09T12:25:54;100500.09;;;19.62;67.51
8653;BME280;4364;52.426;9.424;2022-09-09T12:28:40;100493.53;;;19.67;67.01
8653;BME280;4364;52.426;9.424;2022-09-09T12:33:45;100483.13;;;19.85;67.15
8653;BME280;4364;52.426;9.424;2022-09-09T12:36:21;100487.38;;;20.07;65.65
8653;BME280;4364;52.426;9.424;2022-09-09T12:38:48;100477.47;;;20.06;65.37
8653;BME280;4364;52.426;9.424;2022-09-09T12:41:21;100479.84;;;20.32;63.53
8653;BME280;4364;52.426;9.424;2022-09-09T12:43:49;100467.81;;;20.52;63.08
8653;BME280;4364;52.426;9.424;2022-09-09T12:46:39;100463.38;;;21.04;60.76
8653;BME280;4364;52.426;9.424;2022-09-09T12:49:32;100453.53;;;21.51;58.71
8653;BME280;4364;52.426;9.424;2022-09-09T12:52:32;100451.03;;;21.78;56.95
8653;BME280;4364;52.426;9.424;2022-09-09T12:55:03;100453.06;;;21.97;56.40
8653;BME280;4364;52.426;9.424;2022-09-09T12:57:36;100454.22;;;21.96;56.99
8653;BME280;4364;52.426;9.424;2022-09-09T13:00:17;100444.63;;;21.74;57.07
8653;BME280;4364;52.426;9.424;2022-09-09T13:02:52;100445.16;;;21.63;57.95
8653;BME280;4364;52.426;9.424;2022-09-09T13:05:34;100440.66;;;21.27;58.78
8653;BME280;4364;52.426;9.424;2022-09-09T13:08:03;100454.44;;;20.95;60.01
8653;BME280;4364;52.426;9.424;2022-09-09T13:10:37;100451.03;;;20.86;60.52
8653;BME280;4364;52.426;9.424;2022-09-09T13:13:38;100449.22;;;20.78;61.64
8653;BME280;4364;52.426;9.424;2022-09-09T13:16:18;100447.13;;;20.87;61.06
8653;BME280;4364;52.426;9.424;2022-09-09T13:18:45;100442.75;;;20.86;61.03
8653;BME280;4364;52.426;9.424;2022-09-09T13:21:12;100437.53;;;20.97;59.59
8653;BME280;4364;52.426;9.424;2022-09-09T13:23:40;100443.41;;;21.11;58.99
8653;BME280;4364;52.426;9.424;2022-09-09T13:26:25;100426.03;;;21.42;57.81
8653;BME280;4364;52.426;9.424;2022-09-09T13:28:53;100433.81;;;21.69;56.92
8653;BME280;4364;52.426;9.424;2022-09-09T13:31:33;100434.53;;;21.65;56.40
8653;BME280;4364;52.426;9.424;2022-09-09T13:34:10;100425.28;;;21.93;56.10
8653;BME280;4364;52.426;9.424;2022-09-09T13:36:37;100421.75;;;22.12;55.77
8653;BME280;4364;52.426;9.424;2022-09-09T13:39:04;100417.91;;;22.17;55.22
8653;BME280;4364;52.426;9.424;2022-09-09T13:41:35;100415.59;;;22.38;54.16
8653;BME280;4364;52.426;9.424;2022-09-09T13:44:03;100409.22;;;22.18;54.53
8653;BME280;4364;52.426;9.424;2022-09-09T13:46:38;100416.06;;;22.41;55.17
8653;BME280;4364;52.426;9.424;2022-09-09T13:51:43;100422.53;;;22.48;55.29
8653;BME280;4364;52.426;9.424;2022-09-09T13:54:14;100422.97;;;22.31;55.21
8653;BME280;4364;52.426;9.424;2022-09-09T13:56:42;100414.75;;;21.99;55.82
8653;BME280;4364;52.426;9.424;2022-09-09T13:59:15;100410.31;;;21.78;56.81
8653;BME280;4364;52.426;9.424;2022-09-09T14:01:42;100422.06;;;21.91;56.35
8653;BME280;4364;52.426;9.424;2022-09-09T14:04:10;100415.66;;;22.23;55.51
8653;BME280;4364;52.426;9.424;2022-09-09T14:06:37;100417.34;;;22.47;54.49
8653;BME280;4364;52.426;9.424;2022-09-09T14:09:06;100411.00;;;22.66;53.14
8653;BME280;4364;52.426;9.424;2022-09-09T14:11:33;100412.22;;;22.88;52.48
8653;BME280;4364;52.426;9.424;2022-09-09T14:14:00;100413.31;;;22.83;52.42
8653;BME280;4364;52.426;9.424;2022-09-09T14:16:28;100416.97;;;22.68;52.10
8653;BME280;4364;52.426;9.424;2022-09-09T14:18:55;100415.25;;;22.60;52.88
8653;BME280;4364;52.426;9.424;2022-09-09T14:21:27;100416.78;;;22.57;53.10
8653;BME280;4364;52.426;9.424;2022-09-09T14:23:54;100412.63;;;22.47;53.11
8653;BME280;4364;52.426;9.424;2022-09-09T14:26:21;100412.09;;;22.42;51.89
8653;BME280;4364;52.426;9.424;2022-09-09T14:28:48;100413.03;;;22.30;52.30
8653;BME280;4364;52.426;9.424;2022-09-09T14:31:22;100403.16;;;22.29;52.03
8653;BME280;4364;52.426;9.424;2022-09-09T14:33:49;100407.34;;;22.23;52.38
8653;BME280;4364;52.426;9.424;2022-09-09T14:36:17;100404.91;;;22.01;52.36
8653;BME280;4364;52.426;9.424;2022-09-09T14:38:43;100407.00;;;21.89;53.32
8653;BME280;4364;52.426;9.424;2022-09-09T14:41:15;100411.50;;;21.61;53.86
8653;BME280;4364;52.426;9.424;2022-09-09T14:43:43;100411.22;;;21.67;54.01
8653;BME280;4364;52.426;9.424;2022-09-09T14:46:12;100406.94;;;21.69;53.64
8653;BME280;4364;52.426;9.424;2022-09-09T14:48:39;100398.13;;;21.63;54.05
8653;BME280;4364;52.426;9.424;2022-09-09T14:51:13;100403.75;;;21.51;54.53
8653;BME280;4364;52.426;9.424;2022-09-09T14:53:40;100399.09;;;21.39;54.69
8653;BME280;4364;52.426;9.424;2022-09-09T14:56:15;100394.91;;;21.29;55.33
8653;BME280;4364;52.426;9.424;2022-09-09T14:58:43;100396.69;;;21.22;55.29
8653;BME280;4364;52.426;9.424;2022-09-09T15:01:12;100415.16;;;21.02;55.69
8653;BME280;4364;52.426;9.424;2022-09-09T15:03:41;100405.84;;;20.78;56.28
8653;BME280;4364;52.426;9.424;2022-09-09T15:06:12;100409.56;;;20.70;55.91
8653;BME280;4364;52.426;9.424;2022-09-09T15:08:41;100405.09;;;20.65;56.48
8653;BME280;4364;52.426;9.424;2022-09-09T15:11:09;100406.69;;;20.66;56.72
8653;BME280;4364;52.426;9.424;2022-09-09T15:13:37;100406.91;;;20.61;56.83
8653;BME280;4364;52.426;9.424;2022-09-09T15:16:06;100404.50;;;20.60;57.16
8653;BME280;4364;52.426;9.424;2022-09-09T15:18:33;100401.09;;;20.50;57.10
8653;BME280;4364;52.426;9.424;2022-09-09T15:21:03;100407.66;;;20.46;57.72